createdAt,value
2018-02-25T00:08:07.693Z,77.30
2018-02-25T00:18:09.803Z,79.79
2018-02-25T00:28:06.889Z,81.41
2018-02-25T00:38:00.188Z,84.11
2018-02-25T00:47:59.847Z,85.11
2018-02-25T00:58:28.159Z,79.64
2018-02-25T01:08:21.979Z,83.09
2018-02-25T01:18:53.042Z,84.05
2018-02-25T13:44:53.321Z,54.05
2018-02-25T13:54:19.560Z,53.75
2018-02-25T14:03:49.176Z,31.02
2018-02-25T14:13:13.101Z,37.10
2018-02-25T14:22:37.142Z,37.59
2018-02-25T14:32:08.275Z,38.04
2018-02-25T14:41:35.514Z,44.09
2018-02-25T14:51:07.865Z,50.09
2018-02-25T15:00:43.082Z,48.11
2018-02-25T15:10:16.073Z,50.49
2018-02-25T15:19:50.817Z,54.05
2018-02-25T15:29:26.131Z,53.42
2018-02-25T15:39:06.436Z,54.68
2018-02-25T15:48:38.005Z,55.53
2018-02-25T15:58:09.244Z,56.32
2018-02-25T16:07:40.768Z,56.21
2018-02-25T16:17:11.730Z,59.97
2018-02-25T16:26:38.591Z,58.19
2018-02-25T16:36:14.055Z,60.15
2018-02-25T16:45:49.748Z,64.18
2018-02-25T16:55:25.489Z,67.10
2018-02-25T17:05:00.991Z,69.49
2018-02-25T17:14:55.859Z,68.77
2018-02-25T17:24:51.807Z,69.46
2018-02-25T17:34:41.919Z,70.94
2018-02-25T17:44:36.472Z,73.19
2018-02-25T17:54:33.678Z,73.75
2018-02-25T18:04:29.836Z,74.00
2018-02-25T18:14:26.694Z,69.74
2018-02-25T18:24:22.696Z,70.86
2018-02-25T18:34:17.560Z,73.96
2018-02-25T18:44:11.500Z,76.46
2018-02-25T18:54:06.500Z,77.98
2018-02-25T19:04:00.395Z,77.87
2018-02-25T19:13:57.141Z,77.34
2018-02-25T19:23:53.894Z,79.43
2018-02-25T19:33:46.925Z,78.08
2018-02-25T19:43:41.569Z,78.08
2018-02-25T19:53:36.343Z,77.91
2018-02-25T20:03:29.129Z,79.00
2018-02-25T20:13:22.388Z,78.61
2018-02-25T20:23:16.265Z,78.69
2018-02-25T20:33:12.926Z,79.22
2018-02-25T20:43:09.653Z,78.47
2018-02-25T20:53:07.042Z,81.45
2018-02-25T21:03:03.307Z,80.03
2018-02-25T21:12:56.856Z,82.40
2018-02-25T21:22:53.167Z,81.02
2018-02-25T21:32:50.399Z,82.20
2018-02-25T21:42:48.730Z,82.52
2018-02-25T21:52:46.467Z,82.80
2018-02-25T22:02:45.070Z,82.13
2018-02-25T22:12:42.706Z,84.23
2018-02-25T22:22:41.651Z,84.44
2018-02-25T22:32:37.171Z,84.69
2018-02-25T22:42:35.661Z,84.37
2018-02-25T22:52:33.702Z,83.31
2018-02-25T23:02:30.587Z,85.65
2018-02-25T23:12:27.615Z,83.77
2018-02-25T23:22:26.114Z,83.66
2018-02-25T23:32:23.519Z,82.56
2018-02-25T23:42:21.673Z,82.06
2018-02-25T23:52:20.709Z,81.46
